createdAt,value
2022-09-28T00:01:17.118Z,36.25
2022-09-28T00:03:46.963Z,36.13
2022-09-28T00:06:18.628Z,36.21
2022-09-28T00:08:46.529Z,35.01
2022-09-28T00:11:16.201Z,36.32
2022-09-28T00:13:44.662Z,36.48
2022-09-28T00:16:14.980Z,36.35
2022-09-28T00:18:43.156Z,36.62
2022-09-28T00:21:14.780Z,36.30
2022-09-28T00:23:56.798Z,35.02
2022-09-28T00:26:25.586Z,36.17
2022-09-28T00:28:54.276Z,36.17
2022-09-28T00:31:23.820Z,36.17
2022-09-28T00:33:53.005Z,36.24
2022-09-28T00:36:28.267Z,35.86
2022-09-28T00:39:05.420Z,35.94
2022-09-28T00:41:34.105Z,36.31
2022-09-28T00:44:43.259Z,35.13
2022-09-28T00:47:34.869Z,35.07
2022-09-28T00:50:03.902Z,34.39
2022-09-28T00:52:38.655Z,35.09
2022-09-28T00:55:12.763Z,35.12
2022-09-28T00:57:49.922Z,34.66
2022-09-28T01:00:19.397Z,35.17
2022-09-28T01:02:49.182Z,35.17
2022-09-28T01:05:25.351Z,35.19
2022-09-28T01:07:57.490Z,35.21
2022-09-28T01:10:25.686Z,35.48
2022-09-28T01:12:53.779Z,35.20
2022-09-28T01:15:22.917Z,34.54
2022-09-28T01:17:58.541Z,33.96
2022-09-28T01:20:51.271Z,33.14
2022-09-28T01:23:42.579Z,33.22
2022-09-28T01:26:19.682Z,32.63
2022-09-28T01:28:49.416Z,33.63
2022-09-28T01:31:19.223Z,33.74
2022-09-28T01:33:49.872Z,33.25
2022-09-28T01:36:22.405Z,33.52
2022-09-28T01:38:52.774Z,33.16
2022-09-28T01:41:23.917Z,32.68
2022-09-28T01:43:56.226Z,32.71
2022-09-28T01:46:28.257Z,32.92
2022-09-28T01:48:58.492Z,32.79
2022-09-28T01:51:33.576Z,32.65
2022-09-28T01:54:14.277Z,33.30
2022-09-28T01:56:46.623Z,32.93
2022-09-28T01:59:16.671Z,33.51
2022-09-28T02:01:48.491Z,33.30
2022-09-28T02:04:19.875Z,33.50
2022-09-28T02:06:50.545Z,33.63
2022-09-28T02:09:23.027Z,33.29
2022-09-28T02:11:56.224Z,33.55
2022-09-28T02:14:25.371Z,34.11
2022-09-28T02:16:55.184Z,33.94
2022-09-28T02:19:25.935Z,33.89
2022-09-28T02:21:59.047Z,33.52
2022-09-28T02:24:37.104Z,33.90
2022-09-28T02:27:10.849Z,33.72
2022-09-28T02:29:38.864Z,34.45
2022-09-28T02:32:07.176Z,34.62
2022-09-28T02:34:36.732Z,33.98
2022-09-28T02:37:05.095Z,34.61
2022-09-28T02:39:33.648Z,34.50
2022-09-28T02:42:12.103Z,33.60
2022-09-28T02:44:54.798Z,33.21
2022-09-28T02:47:30.412Z,33.29
2022-09-28T02:50:04.540Z,33.54
2022-09-28T02:52:44.248Z,33.07
2022-09-28T02:55:21.880Z,32.93
2022-09-28T02:58:04.699Z,33.14
2022-09-28T03:00:34.240Z,33.83
2022-09-28T03:03:05.640Z,33.58
2022-09-28T03:05:40.052Z,33.27
2022-09-28T03:08:12.350Z,33.68
2022-09-28T03:10:44.570Z,33.72
2022-09-28T03:13:14.660Z,34.00
2022-09-28T03:15:48.631Z,34.08
2022-09-28T03:18:17.552Z,34.11
2022-09-28T03:20:45.919Z,34.06
2022-09-28T03:23:24.689Z,34.32
2022-09-28T03:25:53.849Z,34.37
2022-09-28T03:28:23.373Z,34.47
2022-09-28T03:30:51.675Z,34.72
2022-09-28T03:33:20.366Z,34.57
2022-09-28T03:35:49.629Z,34.47
2022-09-28T03:38:18.375Z,34.43
2022-09-28T03:40:47.031Z,34.23
2022-09-28T03:43:15.154Z,34.34
2022-09-28T03:45:44.682Z,34.11
2022-09-28T03:48:14.836Z,34.19
2022-09-28T03:50:42.967Z,34.27
2022-09-28T03:53:11.172Z,34.74
2022-09-28T03:55:39.470Z,34.69
2022-09-28T03:58:07.691Z,34.76
2022-09-28T04:00:35.886Z,34.66
2022-09-28T04:03:06.129Z,34.33
2022-09-28T04:05:34.274Z,34.64
2022-09-28T04:08:02.670Z,34.19
2022-09-28T04:10:31.227Z,34.67
2022-09-28T04:12:59.839Z,34.89
2022-09-28T04:15:27.845Z,34.29
2022-09-28T04:17:56.174Z,34.60
2022-09-28T04:20:25.825Z,34.10
2022-09-28T04:22:54.177Z,34.53
2022-09-28T04:25:22.428Z,34.51
2022-09-28T04:28:19.384Z,34.20
2022-09-28T04:30:47.903Z,34.26
2022-09-28T04:33:16.235Z,33.98
2022-09-28T04:35:47.215Z,33.93
2022-09-28T04:38:15.583Z,33.81
2022-09-28T04:40:43.903Z,34.41
2022-09-28T04:43:11.946Z,34.34
2022-09-28T04:45:40.184Z,34.20
2022-09-28T04:48:08.707Z,34.40
2022-09-28T04:50:36.798Z,34.19
2022-09-28T04:53:06.743Z,33.91
2022-09-28T04:55:34.815Z,34.60
2022-09-28T04:58:05.269Z,34.25
2022-09-28T05:00:36.035Z,34.50
2022-09-28T05:03:04.289Z,34.21
2022-09-28T05:05:32.365Z,33.80
2022-09-28T05:08:00.895Z,32.97
2022-09-28T05:10:30.342Z,32.55
2022-09-28T05:12:58.458Z,32.87
2022-09-28T05:15:26.698Z,32.56
2022-09-28T05:17:54.825Z,32.64
2022-09-28T05:20:23.065Z,32.52
2022-09-28T05:22:51.447Z,32.26
2022-09-28T05:25:19.839Z,32.31
2022-09-28T05:27:49.543Z,32.07
2022-09-28T05:30:19.076Z,32.01
2022-09-28T05:32:47.402Z,32.45
2022-09-28T05:35:15.419Z,32.37
2022-09-28T05:37:43.954Z,31.15
2022-09-28T05:40:12.791Z,30.55
2022-09-28T05:42:41.031Z,30.89
2022-09-28T05:45:11.505Z,30.57
2022-09-28T05:47:40.816Z,31.18
2022-09-28T05:50:12.001Z,31.76
2022-09-28T05:52:40.371Z,30.71
2022-09-28T05:55:09.465Z,29.14
2022-09-28T05:57:37.619Z,28.67
2022-09-28T06:00:08.132Z,26.98
2022-09-28T06:02:37.967Z,25.09
2022-09-28T06:05:07.527Z,24.07
2022-09-28T06:07:35.640Z,23.61
2022-09-28T06:10:03.649Z,24.07
2022-09-28T06:12:31.945Z,25.03
2022-09-28T06:15:00.833Z,25.75
2022-09-28T06:17:29.514Z,26.48
2022-09-28T06:19:59.306Z,26.88
2022-09-28T06:22:27.456Z,27.36
2022-09-28T06:24:55.653Z,28.31
2022-09-28T06:27:23.986Z,26.37
2022-09-28T06:29:52.214Z,24.32
2022-09-28T06:32:20.229Z,22.83
2022-09-28T06:34:50.744Z,21.47
2022-09-28T06:37:23.577Z,20.32
2022-09-28T06:39:52.215Z,20.23
2022-09-28T06:42:20.234Z,19.76
2022-09-28T06:44:48.362Z,19.63
2022-09-28T06:47:17.784Z,19.60
2022-09-28T06:49:51.488Z,18.88
2022-09-28T06:52:19.941Z,18.72
2022-09-28T06:54:49.537Z,17.11
2022-09-28T06:57:17.849Z,17.94
2022-09-28T06:59:46.159Z,18.61
2022-09-28T07:02:14.916Z,19.05
2022-09-28T07:04:43.429Z,18.99
2022-09-28T07:07:11.791Z,19.22
2022-09-28T07:09:44.944Z,17.92
2022-09-28T07:12:17.836Z,17.22
2022-09-28T07:14:48.226Z,16.47
2022-09-28T07:17:16.935Z,15.71
2022-09-28T07:19:45.329Z,15.78
2022-09-28T07:22:18.811Z,14.41
2022-09-28T07:24:49.081Z,15.02
2022-09-28T07:27:20.160Z,14.67
2022-09-28T07:29:48.242Z,14.32
2022-09-28T07:32:16.512Z,13.90
2022-09-28T07:34:44.771Z,13.30
2022-09-28T07:37:13.467Z,12.03
2022-09-28T07:39:59.709Z,12.23
2022-09-28T07:42:30.194Z,11.65
2022-09-28T07:44:59.269Z,11.49
2022-09-28T07:47:33.889Z,11.25
2022-09-28T07:50:03.365Z,11.99
2022-09-28T07:52:31.552Z,12.54
2022-09-28T07:55:03.329Z,12.41
2022-09-28T07:57:36.441Z,12.39
2022-09-28T08:00:07.251Z,12.34
2022-09-28T08:02:35.905Z,11.90
2022-09-28T08:05:04.365Z,12.24
2022-09-28T08:07:34.530Z,11.66
2022-09-28T08:10:02.920Z,10.61
2022-09-28T08:12:31.078Z,9.61
2022-09-28T08:15:01.389Z,9.10
2022-09-28T08:17:29.728Z,8.57
2022-09-28T08:20:15.297Z,7.44
2022-09-28T08:22:43.573Z,6.95
2022-09-28T08:25:11.928Z,7.21
2022-09-28T08:27:40.046Z,7.13
2022-09-28T08:30:11.348Z,6.80
2022-09-28T08:32:39.567Z,6.63
2022-09-28T08:35:08.223Z,7.72
2022-09-28T08:37:36.571Z,9.58
2022-09-28T08:40:05.307Z,11.33
2022-09-28T08:42:36.185Z,10.67
2022-09-28T08:45:07.699Z,8.48
2022-09-28T08:47:59.028Z,7.30
2022-09-28T08:50:28.684Z,6.76
2022-09-28T08:53:00.725Z,5.62
2022-09-28T08:55:32.304Z,5.43
2022-09-28T08:58:03.051Z,4.83
2022-09-28T09:00:35.361Z,4.74
2022-09-28T09:03:07.252Z,5.45
2022-09-28T09:05:48.769Z,7.02
2022-09-28T09:08:42.331Z,7.39
2022-09-28T09:11:17.233Z,7.19
2022-09-28T09:14:14.946Z,6.66
2022-09-28T09:17:00.001Z,6.99
2022-09-28T09:19:36.827Z,6.92
2022-09-28T09:22:12.705Z,8.58
2022-09-28T09:24:48.977Z,8.67
2022-09-28T09:27:32.841Z,8.25
2022-09-28T09:30:06.305Z,7.87
2022-09-28T09:32:45.181Z,8.79
2022-09-28T09:35:32.074Z,7.77
2022-09-28T09:38:10.812Z,6.57
2022-09-28T09:40:58.843Z,5.99
2022-09-28T09:44:01.246Z,6.60
2022-09-28T09:46:35.544Z,8.66
2022-09-28T09:49:08.760Z,9.96
2022-09-28T09:51:44.226Z,11.12
2022-09-28T09:54:17.880Z,11.50
2022-09-28T09:56:50.217Z,9.58
2022-09-28T09:59:21.252Z,8.13
2022-09-28T10:01:49.786Z,6.49
2022-09-28T10:04:22.489Z,5.21
2022-09-28T10:06:54.055Z,4.55
2022-09-28T10:09:26.134Z,4.33
2022-09-28T10:11:54.749Z,4.39
2022-09-28T10:14:25.115Z,4.74
2022-09-28T10:16:54.399Z,4.81
2022-09-28T10:19:29.655Z,4.84
2022-09-28T10:22:02.680Z,4.90
2022-09-28T10:24:32.663Z,4.20
2022-09-28T10:27:05.986Z,4.29
2022-09-28T10:29:41.885Z,4.41
2022-09-28T10:32:20.632Z,4.78
2022-09-28T10:34:50.978Z,4.21
2022-09-28T10:37:20.914Z,5.20
2022-09-28T10:39:53.349Z,6.42
2022-09-28T10:42:23.959Z,7.16
2022-09-28T10:44:55.638Z,8.23
2022-09-28T10:47:25.465Z,8.15
2022-09-28T10:49:55.451Z,6.32
2022-09-28T10:52:38.892Z,5.23
2022-09-28T10:55:32.452Z,3.97
2022-09-28T10:58:01.185Z,4.14
2022-09-28T11:00:33.185Z,4.13
2022-09-28T11:03:01.515Z,4.79
2022-09-28T11:05:30.464Z,5.01
2022-09-28T11:08:01.766Z,6.17
2022-09-28T11:10:31.493Z,6.39
2022-09-28T11:13:01.008Z,6.14
2022-09-28T11:15:31.110Z,6.13
2022-09-28T11:18:19.509Z,6.99
2022-09-28T11:20:49.431Z,7.02
2022-09-28T11:23:21.956Z,6.73
2022-09-28T11:26:01.356Z,8.01
2022-09-28T11:28:33.299Z,9.03
2022-09-28T11:31:02.798Z,10.65
2022-09-28T11:33:34.228Z,11.36
2022-09-28T11:36:20.158Z,11.84
2022-09-28T11:38:55.373Z,11.95
2022-09-28T11:41:38.443Z,12.42
2022-09-28T11:44:22.904Z,13.21
2022-09-28T11:46:58.347Z,14.05
2022-09-28T11:49:32.702Z,13.97
2022-09-28T11:52:03.763Z,14.02
2022-09-28T11:54:40.100Z,13.65
2022-09-28T11:57:14.035Z,14.24
2022-09-28T11:59:51.541Z,14.56
2022-09-28T12:02:23.460Z,15.08
2022-09-28T12:04:55.408Z,15.08
2022-09-28T12:07:27.602Z,15.31
2022-09-28T12:10:00.055Z,15.04
2022-09-28T12:12:32.915Z,14.97
2022-09-28T12:15:04.717Z,14.77
2022-09-28T12:17:37.778Z,14.81
2022-09-28T12:20:14.133Z,14.73
2022-09-28T12:22:47.352Z,14.76
2022-09-28T12:25:20.962Z,14.40
2022-09-28T12:27:52.079Z,14.50
2022-09-28T12:30:21.305Z,15.25
2022-09-28T12:32:52.032Z,14.81
2022-09-28T12:35:28.821Z,14.32
2022-09-28T12:38:21.514Z,13.97
2022-09-28T12:40:54.603Z,14.22
2022-09-28T12:43:34.459Z,14.47
2022-09-28T12:46:32.614Z,14.75
2022-09-28T12:50:36.628Z,14.82
2022-09-28T12:52:30.329Z,15.54
2022-09-28T12:55:24.886Z,15.72
2022-09-28T12:58:01.421Z,15.90
2022-09-28T13:00:35.864Z,16.16
2022-09-28T13:03:31.559Z,16.46
2022-09-28T13:06:22.820Z,16.32
2022-09-28T13:09:02.035Z,17.19
2022-09-28T13:11:34.716Z,17.27
2022-09-28T13:14:26.843Z,17.31
2022-09-28T13:17:00.628Z,17.65
2022-09-28T13:19:34.778Z,17.46
2022-09-28T13:22:14.737Z,17.66
2022-09-28T13:24:44.337Z,18.19
2022-09-28T13:27:16.083Z,18.41
2022-09-28T13:29:45.805Z,18.75
2022-09-28T13:32:15.216Z,18.92
2022-09-28T13:34:43.404Z,19.38
2022-09-28T13:37:23.077Z,19.13
2022-09-28T13:39:53.248Z,19.17
2022-09-28T13:42:51.208Z,18.72
2022-09-28T13:45:58.981Z,19.25
2022-09-28T13:48:38.526Z,19.62
2022-09-28T13:51:13.614Z,19.95
2022-09-28T13:54:04.547Z,20.02
2022-09-28T13:56:38.941Z,20.32
2022-09-28T13:59:15.124Z,20.10
2022-09-28T14:01:47.116Z,20.43
2022-09-28T14:04:21.015Z,20.57
2022-09-28T14:06:55.503Z,20.60
2022-09-28T14:09:41.240Z,20.54
2022-09-28T14:12:29.725Z,20.74
2022-09-28T14:14:58.365Z,21.66
2022-09-28T14:17:51.387Z,20.72
2022-09-28T14:20:25.096Z,21.62
2022-09-28T14:23:25.423Z,21.13
2022-09-28T14:26:05.798Z,21.34
2022-09-28T14:28:45.626Z,21.37
2022-09-28T14:31:19.069Z,22.15
2022-09-28T14:33:56.938Z,21.66
2022-09-28T14:36:46.641Z,22.12
2022-09-28T14:39:38.808Z,21.69
2022-09-28T14:42:12.875Z,21.93
2022-09-28T14:45:19.191Z,21.71
2022-09-28T14:48:20.524Z,21.42
2022-09-28T14:50:50.110Z,21.83
2022-09-28T14:53:22.279Z,21.92
2022-09-28T14:55:52.496Z,22.12
2022-09-28T14:58:24.257Z,22.15
2022-09-28T15:00:57.981Z,21.56
2022-09-28T15:03:28.614Z,22.02
2022-09-28T15:05:56.857Z,22.21
2022-09-28T15:08:37.658Z,21.34
2022-09-28T15:11:06.320Z,22.10
2022-09-28T15:13:34.586Z,21.79
2022-09-28T15:16:09.941Z,21.81
2022-09-28T15:19:08.066Z,21.29
2022-09-28T15:21:37.967Z,22.54
2022-09-28T15:24:31.631Z,22.03
2022-09-28T15:27:00.051Z,22.78
2022-09-28T15:29:31.752Z,22.73
2022-09-28T15:32:00.195Z,22.90
2022-09-28T15:34:47.171Z,22.50
2022-09-28T15:37:16.712Z,22.76
2022-09-28T15:39:48.413Z,22.47
2022-09-28T15:42:18.601Z,23.28
2022-09-28T15:45:02.576Z,23.43
2022-09-28T15:47:32.121Z,25.19
2022-09-28T15:50:01.959Z,27.73
2022-09-28T15:52:36.633Z,28.53
2022-09-28T15:55:19.351Z,29.31
2022-09-28T15:57:48.462Z,30.79
2022-09-28T16:00:28.891Z,30.89
2022-09-28T16:03:01.738Z,31.66
2022-09-28T16:05:34.211Z,31.75
2022-09-28T16:08:03.559Z,31.52
2022-09-28T16:10:35.966Z,30.99
2022-09-28T16:13:17.229Z,30.11
2022-09-28T16:15:45.394Z,29.23
2022-09-28T16:18:19.207Z,30.00
2022-09-28T16:20:49.734Z,31.34
2022-09-28T16:23:22.571Z,31.31
2022-09-28T16:25:56.755Z,31.60
2022-09-28T16:28:49.188Z,31.53
2022-09-28T16:31:27.970Z,31.42
2022-09-28T16:33:59.109Z,32.31
2022-09-28T16:36:29.955Z,30.60
2022-09-28T16:38:58.352Z,31.88
2022-09-28T16:41:29.016Z,31.58
2022-09-28T16:44:01.158Z,31.62
2022-09-28T16:46:32.544Z,31.70
2022-09-28T16:49:03.350Z,31.92
2022-09-28T16:51:31.460Z,32.00
2022-09-28T16:54:19.133Z,31.58
2022-09-28T16:56:48.806Z,31.40
2022-09-28T16:59:17.052Z,31.29
2022-09-28T17:01:45.291Z,31.56
2022-09-28T17:04:13.629Z,31.33
2022-09-28T17:06:43.623Z,31.47
2022-09-28T17:09:13.948Z,30.90
2022-09-28T17:11:42.277Z,31.17
2022-09-28T17:14:11.957Z,30.74
2022-09-28T17:17:06.771Z,31.32
2022-09-28T17:19:29.941Z,30.82
2022-09-28T17:21:58.347Z,31.12
2022-09-28T17:24:26.658Z,31.02
2022-09-28T17:26:55.183Z,31.10
2022-09-28T17:29:24.698Z,30.83
2022-09-28T17:31:53.103Z,31.28
2022-09-28T17:34:21.811Z,31.18
2022-09-28T17:36:50.201Z,31.19
2022-09-28T17:39:19.639Z,30.94
2022-09-28T17:41:48.214Z,30.80
2022-09-28T17:44:16.766Z,31.16
2022-09-28T17:46:49.242Z,30.64
2022-09-28T17:49:18.996Z,31.17
2022-09-28T17:51:47.239Z,31.28
2022-09-28T17:54:19.454Z,31.21
2022-09-28T17:56:47.924Z,31.42
2022-09-28T17:59:18.700Z,31.53
2022-09-28T18:01:48.566Z,31.86
2022-09-28T18:04:33.768Z,31.97
2022-09-28T18:07:05.441Z,31.90
2022-09-28T18:09:33.888Z,31.81
2022-09-28T18:12:05.421Z,31.40
2022-09-28T18:14:36.002Z,31.59
2022-09-28T18:17:05.968Z,31.39
2022-09-28T18:19:34.211Z,31.46
2022-09-28T18:22:02.636Z,31.69
2022-09-28T18:24:32.677Z,31.63
2022-09-28T18:27:01.165Z,31.88
2022-09-28T18:29:33.038Z,31.69
2022-09-28T18:32:02.730Z,32.25
2022-09-28T18:34:32.476Z,31.70
2022-09-28T18:37:00.753Z,31.88
2022-09-28T18:39:29.280Z,31.77
2022-09-28T18:41:58.169Z,31.48
2022-09-28T18:44:26.916Z,31.79
2022-09-28T18:46:55.591Z,31.80
2022-09-28T18:49:24.468Z,31.53
2022-09-28T18:51:54.301Z,31.35
2022-09-28T18:54:23.017Z,31.65
2022-09-28T18:56:51.421Z,31.58
2022-09-28T18:59:20.053Z,31.64
2022-09-28T19:01:48.504Z,31.52
2022-09-28T19:04:16.925Z,31.55
2022-09-28T19:06:47.598Z,31.25
2022-09-28T19:09:19.877Z,30.82
2022-09-28T19:11:48.334Z,31.18
2022-09-28T19:14:17.202Z,30.96
2022-09-28T19:16:46.296Z,31.10
2022-09-28T19:19:19.413Z,30.30
2022-09-28T19:21:48.146Z,30.92
2022-09-28T19:24:19.344Z,30.72
2022-09-28T19:26:47.574Z,31.36
2022-09-28T19:29:16.294Z,31.23
2022-09-28T19:31:44.666Z,31.35
2022-09-28T19:34:14.234Z,31.13
2022-09-28T19:36:43.144Z,31.27
2022-09-28T19:39:14.666Z,30.70
2022-09-28T19:41:47.931Z,29.46
2022-09-28T19:44:24.784Z,30.41
2022-09-28T19:46:54.751Z,30.75
2022-09-28T19:49:24.176Z,31.14
2022-09-28T19:52:13.761Z,30.95
2022-09-28T19:54:44.975Z,31.09
2022-09-28T19:57:16.053Z,31.10
2022-09-28T19:59:44.377Z,30.06
2022-09-28T20:02:13.458Z,31.46
2022-09-28T20:04:41.567Z,31.70
2022-09-28T20:07:10.868Z,31.65
2022-09-28T20:09:39.448Z,31.62
2022-09-28T20:12:07.592Z,31.62
2022-09-28T20:14:39.658Z,31.46
2022-09-28T20:17:08.875Z,31.59
2022-09-28T20:19:37.114Z,31.56
2022-09-28T20:22:05.532Z,31.76
2022-09-28T20:24:33.941Z,31.68
2022-09-28T20:27:03.030Z,31.59
2022-09-28T20:29:33.580Z,31.47
2022-09-28T20:32:04.340Z,31.56
2022-09-28T20:34:33.613Z,31.81
2022-09-28T20:37:02.084Z,32.17
2022-09-28T20:39:30.377Z,32.00
2022-09-28T20:41:58.740Z,31.96
2022-09-28T20:44:26.861Z,32.05
2022-09-28T20:46:56.361Z,32.12
2022-09-28T20:49:27.273Z,31.72
2022-09-28T20:51:55.466Z,32.06
2022-09-28T20:54:23.468Z,32.06
2022-09-28T20:56:51.835Z,32.04
2022-09-28T20:59:20.346Z,32.33
2022-09-28T21:01:48.571Z,32.06
2022-09-28T21:04:16.895Z,31.85
2022-09-28T21:06:46.434Z,31.87
2022-09-28T21:09:14.650Z,32.46
2022-09-28T21:11:43.139Z,32.48
2022-09-28T21:14:11.245Z,32.38
2022-09-28T21:16:40.146Z,32.22
2022-09-28T21:19:08.413Z,32.36
2022-09-28T21:21:36.441Z,32.13
2022-09-28T21:24:06.162Z,32.09
2022-09-28T21:26:35.269Z,32.55
2022-09-28T21:29:05.072Z,32.01
2022-09-28T21:31:38.366Z,31.99
2022-09-28T21:34:06.944Z,31.98
2022-09-28T21:36:35.142Z,32.03
2022-09-28T21:39:07.007Z,31.72
2022-09-28T21:41:39.545Z,31.66
2022-09-28T21:44:08.233Z,31.53
2022-09-28T21:46:37.080Z,31.79
2022-09-28T21:49:07.579Z,31.83
2022-09-28T21:51:36.128Z,32.12
2022-09-28T21:54:04.355Z,32.18
2022-09-28T21:56:32.705Z,31.90
2022-09-28T21:59:02.566Z,31.52
2022-09-28T22:01:31.419Z,31.95
2022-09-28T22:03:59.858Z,32.03
2022-09-28T22:06:29.162Z,31.98
2022-09-28T22:08:57.938Z,31.72
2022-09-28T22:11:28.083Z,31.68
2022-09-28T22:13:57.492Z,31.50
2022-09-28T22:16:29.350Z,31.22
2022-09-28T22:18:58.022Z,31.66
2022-09-28T22:21:30.436Z,31.47
2022-09-28T22:24:01.268Z,31.15
2022-09-28T22:26:31.823Z,30.86
2022-09-28T22:29:01.434Z,31.00
2022-09-28T22:31:32.642Z,30.67
2022-09-28T22:34:00.769Z,31.01
2022-09-28T22:36:29.755Z,31.14
2022-09-28T22:38:58.599Z,31.19
2022-09-28T22:41:26.999Z,30.88
2022-09-28T22:43:55.767Z,30.75
2022-09-28T22:46:25.221Z,30.93
2022-09-28T22:48:56.087Z,30.45
2022-09-28T22:51:26.042Z,30.84
2022-09-28T22:53:54.266Z,31.02
2022-09-28T22:56:22.407Z,30.94
2022-09-28T22:58:50.856Z,31.17
2022-09-28T23:01:21.185Z,30.93
2022-09-28T23:03:50.371Z,31.15
2022-09-28T23:06:22.140Z,30.88
2022-09-28T23:08:51.906Z,31.31
2022-09-28T23:11:20.782Z,31.10
2022-09-28T23:13:52.558Z,30.54
2022-09-28T23:16:23.466Z,31.09
2022-09-28T23:18:52.568Z,31.04
2022-09-28T23:21:24.493Z,30.81
2022-09-28T23:23:54.421Z,31.17
2022-09-28T23:26:24.796Z,30.67
2022-09-28T23:28:53.477Z,30.90
2022-09-28T23:31:23.168Z,31.14
2022-09-28T23:33:51.510Z,30.84
2022-09-28T23:36:21.019Z,30.86
2022-09-28T23:38:49.462Z,30.74
2022-09-28T23:41:17.518Z,30.50
2022-09-28T23:43:45.740Z,30.91
2022-09-28T23:46:19.636Z,30.92
2022-09-28T23:48:48.862Z,30.87
2022-09-28T23:51:17.168Z,30.61
2022-09-28T23:53:46.800Z,30.26
2022-09-28T23:56:15.586Z,30.41
2022-09-28T23:58:44.033Z,30.56
